Saint Petersburg Beach, Florida
Current Conditions -  °F | °C
As of 12:53 AM on Wednesday 28 Jan 2015 (Local Time) from KSPG Reporting Station
Clear Clear  
Wind Chill: 15°   Ceiling: Unl
Heat Index: 15°   Visibility: 10mi
Dew Point:   Wind: 7mph
Humidity: 67%   Direction: 10°N
Pressure: 30.08"   Gusts: NA
Location:  27.7254°N, 82.7422°W
Report Text: KSPG 280553Z AUTO 01006KT 10SM CLR 15/09 A3008 RMK AO2 SLP184 T01500089 10183 20150 51015
Loading
Personal Weather Stations






























Interactive Weather Map New forecast layout! Learn more

10-Day Weather Forecast

Advertisements
Track Severe Weather on mobile